createdAt,value
2017-07-21T00:05:58.994Z,94.41
2017-07-21T00:25:59.430Z,98.11
2017-07-21T00:46:00.060Z,94.51
2017-07-21T01:06:00.351Z,89.85
2017-07-21T01:26:00.580Z,88.67
2017-07-21T01:46:01.226Z,75.39
2017-07-21T02:06:01.585Z,24.05
2017-07-21T02:26:02.080Z,32.14
2017-07-21T02:46:02.561Z,98.26
2017-07-21T03:05:19.580Z,43.04
2017-07-21T03:25:19.025Z,79.39
2017-07-21T03:50:19.724Z,98.45
2017-07-21T04:10:20.268Z,81.61
2017-07-21T04:30:20.817Z,66.87
2017-07-21T04:50:21.334Z,3.62
2017-07-21T05:10:21.902Z,3.71
2017-07-21T05:30:22.318Z,0.28
2017-07-21T05:50:22.864Z,0.03
2017-07-21T06:10:23.435Z,0.06
2017-07-21T06:30:23.989Z,12.12
2017-07-21T06:50:24.526Z,0.00
2017-07-21T07:10:25.080Z,2.07
2017-07-21T07:30:25.607Z,1.10
2017-07-21T07:50:26.162Z,0.03
2017-07-21T08:10:26.714Z,1.51
2017-07-21T08:30:27.296Z,6.39
2017-07-21T08:50:27.835Z,8.61
2017-07-21T09:10:28.333Z,6.81
2017-07-21T09:55:29.442Z,19.42
2017-07-21T10:15:29.998Z,17.50
2017-07-21T10:35:30.547Z,18.58
2017-07-21T10:55:31.342Z,26.19
2017-07-21T11:15:31.825Z,16.13
2017-07-21T11:35:32.271Z,12.10
2017-07-21T11:55:32.775Z,9.17
2017-07-21T12:15:33.223Z,5.05
2017-07-21T12:35:33.772Z,2.00
2017-07-21T12:55:34.331Z,1.37
2017-07-21T13:16:19.370Z,25.03
2017-07-21T13:35:35.346Z,27.19
2017-07-21T13:55:35.768Z,0.42
2017-07-21T14:15:36.339Z,6.99
2017-07-21T14:35:36.698Z,4.54
2017-07-21T14:55:37.188Z,0.83
2017-07-21T15:15:37.723Z,54.26
2017-07-21T15:35:38.274Z,20.60
2017-07-21T15:55:38.675Z,0.00
2017-07-21T16:25:39.502Z,0.00
2017-07-21T16:45:40.029Z,0.00
2017-07-21T17:05:40.586Z,0.00
2017-07-21T17:25:41.027Z,0.00
2017-07-21T17:45:41.589Z,0.00
2017-07-21T18:05:42.083Z,0.00
2017-07-21T18:25:42.442Z,0.00
2017-07-21T18:45:42.972Z,41.38
2017-07-21T19:05:43.445Z,25.63
2017-07-21T19:25:43.970Z,20.35
2017-07-21T19:45:44.516Z,69.54
2017-07-21T20:05:46.068Z,57.78
2017-07-21T20:26:30.099Z,76.17
2017-07-21T20:46:30.591Z,76.83
2017-07-21T21:06:31.139Z,21.84
2017-07-21T21:26:31.414Z,33.99
2017-07-21T21:46:31.922Z,72.40
2017-07-21T22:06:32.277Z,65.85
2017-07-21T22:26:32.752Z,53.48
2017-07-21T23:01:33.592Z,64.89
2017-07-21T23:21:34.094Z,59.22
2017-07-21T23:41:34.572Z,55.12
